createdAt,value
2023-11-16T00:03:13.619Z,3.08
2023-11-16T00:08:17.862Z,4.10
2023-11-16T00:13:21.645Z,4.07
2023-11-16T00:18:28.986Z,3.45
2023-11-16T00:23:33.575Z,4.25
2023-11-16T00:28:41.317Z,4.78
2023-11-16T00:33:48.164Z,2.70
2023-11-16T00:38:52.964Z,4.10
2023-11-16T00:43:58.382Z,3.72
2023-11-16T00:49:04.128Z,2.97
2023-11-16T00:54:08.638Z,2.63
2023-11-16T00:59:12.377Z,3.70
2023-11-16T01:04:20.798Z,3.20
2023-11-16T01:09:25.965Z,3.45
2023-11-16T01:14:34.002Z,3.20
2023-11-16T01:19:45.278Z,3.50
2023-11-16T01:24:49.842Z,3.60
2023-11-16T01:29:54.997Z,3.08
2023-11-16T01:35:04.871Z,3.33
2023-11-16T01:40:09.582Z,3.20
2023-11-16T01:45:34.027Z,2.25
2023-11-16T01:50:43.683Z,3.20
2023-11-16T01:55:50.583Z,2.72
2023-11-16T02:00:55.954Z,3.28
2023-11-16T02:11:05.305Z,2.72
2023-11-16T02:16:09.466Z,3.25
2023-11-16T02:21:15.318Z,2.72
2023-11-16T02:26:25.367Z,2.95
2023-11-16T02:31:38.062Z,1.80
2023-11-16T02:36:43.183Z,2.55
2023-11-16T02:41:48.979Z,2.83
2023-11-16T02:46:53.092Z,2.25
2023-11-16T02:51:57.080Z,3.13
2023-11-16T02:57:07.413Z,2.75
2023-11-16T03:02:13.567Z,3.70
2023-11-16T03:07:27.034Z,3.20
2023-11-16T03:12:38.218Z,3.13
2023-11-16T03:22:52.102Z,2.30
2023-11-16T03:27:57.763Z,2.67
2023-11-16T03:33:03.507Z,3.00
2023-11-16T03:38:08.372Z,2.50
2023-11-16T03:43:13.788Z,2.50
2023-11-16T03:48:19.972Z,3.40
2023-11-16T03:53:24.100Z,1.98
2023-11-16T03:58:28.852Z,2.33
2023-11-16T04:03:33.158Z,1.92
2023-11-16T04:08:39.459Z,2.13
2023-11-16T04:13:45.666Z,2.58
2023-11-16T04:18:50.628Z,2.53
2023-11-16T04:23:57.905Z,2.75
2023-11-16T04:29:02.798Z,3.03
2023-11-16T04:34:07.105Z,2.15
2023-11-16T04:39:13.665Z,3.03
2023-11-16T04:44:21.121Z,2.70
2023-11-16T04:49:25.650Z,3.42
2023-11-16T04:54:29.299Z,2.70
2023-11-16T04:59:34.433Z,2.47
2023-11-16T05:04:43.350Z,2.35
2023-11-16T05:09:47.778Z,2.30
2023-11-16T05:15:00.897Z,2.72
2023-11-16T05:20:08.659Z,3.13
2023-11-16T05:25:13.388Z,2.70
2023-11-16T05:30:25.176Z,4.28
2023-11-16T05:35:30.527Z,3.33
2023-11-16T05:40:34.782Z,2.63
2023-11-16T05:45:41.513Z,2.30
2023-11-16T05:50:46.899Z,2.38
2023-11-16T05:55:53.829Z,3.20
2023-11-16T06:00:59.750Z,3.00
2023-11-16T06:06:07.419Z,2.38
2023-11-16T06:11:15.395Z,3.20
2023-11-16T06:16:20.995Z,3.13
2023-11-16T06:21:26.034Z,3.10
2023-11-16T06:26:32.633Z,3.45
2023-11-16T06:31:39.119Z,2.92
2023-11-16T06:36:43.962Z,2.05
2023-11-16T06:41:47.850Z,2.55
2023-11-16T06:46:56.101Z,3.22
2023-11-16T06:52:02.567Z,3.40
2023-11-16T06:57:06.953Z,2.70
2023-11-16T07:02:15.246Z,2.55
2023-11-16T07:07:20.538Z,2.40
2023-11-16T07:12:24.497Z,3.20
2023-11-16T07:17:30.730Z,2.83
2023-11-16T07:22:34.375Z,2.70
2023-11-16T07:27:42.804Z,2.95
2023-11-16T07:32:49.530Z,2.50
2023-11-16T07:37:54.391Z,2.70
2023-11-16T07:42:58.868Z,2.15
2023-11-16T07:48:05.925Z,2.30
2023-11-16T07:53:14.331Z,3.30
2023-11-16T07:58:18.960Z,2.25
2023-11-16T08:03:43.368Z,2.40
2023-11-16T08:08:47.997Z,2.70
2023-11-16T08:13:53.544Z,2.27
2023-11-16T08:19:00.990Z,2.13
2023-11-16T08:24:07.605Z,2.55
2023-11-16T08:29:11.388Z,3.22
2023-11-16T08:34:17.062Z,3.17
2023-11-16T08:39:22.920Z,2.58
2023-11-16T08:44:27.263Z,2.22
2023-11-16T08:49:37.160Z,2.28
2023-11-16T08:54:42.340Z,2.05
2023-11-16T09:00:03.124Z,2.05
2023-11-16T09:05:12.105Z,1.45
2023-11-16T09:10:17.081Z,1.60
2023-11-16T09:15:27.497Z,1.38
2023-11-16T09:20:35.171Z,1.10
2023-11-16T09:25:40.084Z,1.35
2023-11-16T09:30:45.105Z,1.25
2023-11-16T09:35:53.213Z,0.77
2023-11-16T09:41:06.362Z,1.00
2023-11-16T09:46:13.739Z,0.70
2023-11-16T09:51:20.668Z,0.75
2023-11-16T09:56:36.270Z,0.50
2023-11-16T10:01:57.486Z,0.50
2023-11-16T10:07:06.634Z,0.40
2023-11-16T10:12:15.284Z,0.95
2023-11-16T10:17:26.954Z,0.30
2023-11-16T10:22:35.965Z,0.77
2023-11-16T10:27:43.749Z,0.30
2023-11-16T10:32:48.818Z,0.20
2023-11-16T10:37:56.677Z,0.57
2023-11-16T10:43:05.620Z,0.20
2023-11-16T10:48:10.827Z,0.30
2023-11-16T10:53:18.872Z,0.60
2023-11-16T10:58:31.276Z,0.50
2023-11-16T11:03:37.295Z,0.45
2023-11-16T11:08:44.784Z,0.55
2023-11-16T11:13:54.777Z,0.30
2023-11-16T11:19:00.381Z,0.30
2023-11-16T11:24:09.719Z,0.28
2023-11-16T11:29:14.183Z,0.20
2023-11-16T11:34:18.141Z,0.70
2023-11-16T11:39:27.984Z,0.38
2023-11-16T11:44:31.950Z,0.22
2023-11-16T11:49:35.962Z,0.32
2023-11-16T11:54:43.079Z,0.43
2023-11-16T11:59:47.226Z,0.43
2023-11-16T12:04:51.135Z,0.55
2023-11-16T12:09:57.034Z,0.30
2023-11-16T12:15:01.465Z,0.20
2023-11-16T12:20:06.267Z,0.47
2023-11-16T12:25:13.754Z,0.85
2023-11-16T12:30:21.607Z,0.50
2023-11-16T12:35:26.158Z,0.55
2023-11-16T12:40:31.254Z,0.50
2023-11-16T12:45:35.591Z,0.32
2023-11-16T12:50:41.065Z,0.40
2023-11-16T12:55:48.086Z,0.20
2023-11-16T13:00:52.609Z,0.57
2023-11-16T13:05:57.378Z,0.30
2023-11-16T13:11:02.897Z,0.85
2023-11-16T13:16:07.990Z,0.55
2023-11-16T13:21:12.061Z,0.57
2023-11-16T13:26:17.289Z,0.50
2023-11-16T13:36:24.872Z,0.47
2023-11-16T13:41:30.014Z,0.38
2023-11-16T13:46:33.797Z,0.40
2023-11-16T13:51:38.427Z,0.88
2023-11-16T13:56:49.957Z,0.35
2023-11-16T14:01:53.908Z,0.20
2023-11-16T14:06:58.725Z,0.30
2023-11-16T14:12:05.212Z,0.73
2023-11-16T14:17:09.725Z,0.30
2023-11-16T14:22:13.909Z,0.40
2023-11-16T14:27:19.464Z,0.55
2023-11-16T14:32:29.155Z,0.60
2023-11-16T14:37:32.858Z,0.90
2023-11-16T14:42:38.042Z,0.70
2023-11-16T14:52:53.016Z,0.60
2023-11-16T14:58:02.954Z,0.57
2023-11-16T15:08:10.475Z,0.70
2023-11-16T15:13:15.458Z,0.60
2023-11-16T15:18:19.557Z,0.55
2023-11-16T15:23:23.425Z,0.70
2023-11-16T15:28:28.390Z,0.77
2023-11-16T15:33:32.072Z,0.52
2023-11-16T15:38:36.408Z,1.00
2023-11-16T15:43:41.618Z,0.60
2023-11-16T15:48:45.218Z,0.70
2023-11-16T15:53:49.523Z,1.00
2023-11-16T15:58:56.603Z,0.80
2023-11-16T16:04:02.320Z,1.95
2023-11-16T16:09:06.625Z,2.20
2023-11-16T16:14:11.727Z,1.83
2023-11-16T16:19:15.630Z,2.38
2023-11-16T16:24:19.597Z,1.52
2023-11-16T16:29:31.657Z,1.83
2023-11-16T16:34:35.395Z,1.20
2023-11-16T16:39:40.587Z,0.90
2023-11-16T16:54:56.830Z,2.28
2023-11-16T17:00:29.851Z,2.78
2023-11-16T17:05:35.165Z,3.45
2023-11-16T17:10:38.698Z,2.80
2023-11-16T17:15:45.032Z,2.38
2023-11-16T17:20:57.851Z,3.85
2023-11-16T17:26:02.276Z,4.53
2023-11-16T17:31:08.226Z,4.13
2023-11-16T17:36:12.446Z,6.22
2023-11-16T17:41:17.779Z,7.18
2023-11-16T17:51:28.852Z,3.70
2023-11-16T17:56:32.686Z,3.65
2023-11-16T18:01:38.888Z,3.20
2023-11-16T18:06:42.436Z,3.25
2023-11-16T18:11:47.508Z,4.40
2023-11-16T18:21:57.555Z,3.20
2023-11-16T18:27:02.015Z,3.15
2023-11-16T18:32:09.294Z,2.70
2023-11-16T18:37:13.851Z,2.78
2023-11-16T18:42:17.851Z,1.65
2023-11-16T18:47:23.272Z,3.05
2023-11-16T18:52:27.046Z,2.15
2023-11-16T18:57:34.069Z,2.10
2023-11-16T19:02:40.404Z,4.13
2023-11-16T19:12:49.040Z,2.60
2023-11-16T19:17:54.219Z,3.00
2023-11-16T19:23:02.613Z,2.05
2023-11-16T19:28:07.895Z,2.05
2023-11-16T19:33:16.170Z,2.40
2023-11-16T19:38:25.485Z,2.28
2023-11-16T19:43:29.086Z,2.00
2023-11-16T19:48:38.154Z,1.97
2023-11-16T19:53:42.885Z,2.30
2023-11-16T19:58:46.923Z,2.92
2023-11-16T20:03:53.011Z,2.38
2023-11-16T20:09:24.389Z,1.90
2023-11-16T20:14:30.978Z,1.65
2023-11-16T20:19:37.977Z,1.95
2023-11-16T20:24:41.607Z,2.30
2023-11-16T20:29:47.140Z,2.22
2023-11-16T20:34:52.423Z,2.10
2023-11-16T20:39:56.357Z,1.77
2023-11-16T20:50:08.418Z,1.45
2023-11-16T20:55:12.590Z,1.80
2023-11-16T21:00:21.315Z,2.00
2023-11-16T21:05:26.409Z,1.67
2023-11-16T21:10:30.617Z,2.05
2023-11-16T21:15:34.427Z,1.70
2023-11-16T21:20:42.898Z,2.25
2023-11-16T21:25:47.056Z,2.20
2023-11-16T21:30:50.861Z,1.52
2023-11-16T21:35:56.504Z,2.13
2023-11-16T21:41:02.696Z,2.03
2023-11-16T21:46:07.698Z,2.78
2023-11-16T22:01:20.718Z,2.78
2023-11-16T22:06:26.223Z,2.13
2023-11-16T22:11:30.742Z,2.70
2023-11-16T22:16:34.645Z,2.45
2023-11-16T22:21:40.706Z,1.25
2023-11-16T22:26:44.626Z,2.75
2023-11-16T22:31:48.748Z,1.92
2023-11-16T22:36:54.013Z,3.03
2023-11-16T22:41:58.940Z,2.20
2023-11-16T22:47:02.840Z,2.88
2023-11-16T22:52:08.236Z,2.63
2023-11-16T22:57:12.397Z,2.05
2023-11-16T23:02:16.331Z,2.13
2023-11-16T23:07:24.147Z,2.55
2023-11-16T23:12:28.314Z,2.20
2023-11-16T23:17:32.176Z,2.60
2023-11-16T23:22:40.875Z,2.83
2023-11-16T23:27:47.953Z,1.52
2023-11-16T23:32:51.909Z,2.28
2023-11-16T23:37:57.560Z,2.35
2023-11-16T23:43:01.630Z,2.53
2023-11-16T23:48:06.040Z,1.63
2023-11-16T23:53:11.122Z,2.30
